GB-0587 weather

Norton Malreward Airstrip
England, United Kingdom

Public forecast

Using degrees Celsius for public forecast. Weather courtesy of forecast.io.

METAR (pilot weather report)

Closest report is Bristol Airport, 5.6 nm (10.4 km) W. Retrieved 2019/09/17 05:20 UTC (0 seconds ago):

EGGD 170520Z AUTO 06004KT 010V090 9999 NCD 09/07 Q1025

TAF (pilot weather forecast)

Forecast is more than 12 hours old.

Closest forecast is Bristol Airport, 5.6 nm (10.4 km) W. Retrieved 2019/09/16 00:00 UTC (1 day ago):

TAF EGGD 162303Z 1700/1724 04008KT 9999 SCT025